createdAt,value
2019-03-12T03:31:40.952Z,76.10
2019-03-12T03:32:29.386Z,75.50
2019-03-12T03:33:17.937Z,75.90
2019-03-12T03:34:06.879Z,75.10
2019-03-12T03:34:55.783Z,75.20
2019-03-12T03:35:44.668Z,73.90
2019-03-12T03:36:33.359Z,74.20
2019-03-12T03:37:21.642Z,73.60
2019-03-12T03:38:10.072Z,73.60
2019-03-12T03:38:58.340Z,72.90
2019-03-12T03:39:46.844Z,73.60
2019-03-12T03:40:36.624Z,73.60
2019-03-12T03:41:25.159Z,73.70
2019-03-12T03:42:13.679Z,73.30
2019-03-12T03:43:01.977Z,73.90
2019-03-12T03:43:50.405Z,74.10
2019-03-12T03:44:39.108Z,73.90
2019-03-12T03:45:27.429Z,74.00
2019-03-12T03:46:19.588Z,74.00
2019-03-12T06:36:16.100Z,66.20
2019-03-12T06:37:04.830Z,65.90
2019-03-12T06:38:49.076Z,65.10
2019-03-12T06:39:52.462Z,66.30
2019-03-12T06:40:55.849Z,65.70
2019-03-12T06:41:59.547Z,63.60
2019-03-12T06:43:03.135Z,62.80
2019-03-12T06:44:06.525Z,61.40
2019-03-12T06:45:09.814Z,61.70
2019-03-12T06:46:13.090Z,61.00
2019-03-12T06:47:16.189Z,59.90
2019-03-12T06:48:19.864Z,60.50
2019-03-12T06:49:23.416Z,60.80
2019-03-12T06:50:27.154Z,60.90
2019-03-12T06:51:30.325Z,60.90
2019-03-12T06:52:34.124Z,60.80
2019-03-12T06:53:38.025Z,61.10
2019-03-12T06:54:41.102Z,61.30
2019-03-12T06:55:44.348Z,61.00
2019-03-12T06:56:47.671Z,61.30
2019-03-12T06:57:51.097Z,61.80
2019-03-12T06:58:54.461Z,61.30
2019-03-12T06:59:58.174Z,62.00
2019-03-12T07:01:01.949Z,62.10
2019-03-12T07:02:05.631Z,62.00
2019-03-12T07:03:09.340Z,61.70
2019-03-12T07:04:12.073Z,62.40
2019-03-12T07:05:15.369Z,62.50
2019-03-12T07:06:19.072Z,62.70
2019-03-12T07:07:22.579Z,62.50
2019-03-12T07:08:26.090Z,62.00
2019-03-12T07:09:29.440Z,62.70
2019-03-12T07:10:33.133Z,62.70
2019-03-12T07:11:36.420Z,62.90
2019-03-12T07:12:39.698Z,63.00
2019-03-12T07:13:43.396Z,63.30
2019-03-12T07:14:46.490Z,63.20
2019-03-12T07:15:49.675Z,63.40
2019-03-12T07:16:53.159Z,63.40
2019-03-12T07:17:56.542Z,63.50
2019-03-12T07:18:59.619Z,63.40
2019-03-12T07:20:03.115Z,63.70
2019-03-12T07:21:06.677Z,63.80
2019-03-12T07:22:10.086Z,63.90
2019-03-12T07:23:13.479Z,64.10
2019-03-12T07:24:17.080Z,63.90
2019-03-12T07:25:20.755Z,63.90
2019-03-12T07:26:23.778Z,64.20
2019-03-12T07:27:27.128Z,64.10
2019-03-12T07:28:30.625Z,63.70
2019-03-12T07:29:34.095Z,64.50
2019-03-12T07:30:37.388Z,63.90
2019-03-12T07:31:41.091Z,64.20
2019-03-12T07:32:44.611Z,64.50
2019-03-12T07:33:47.583Z,64.30
2019-03-12T07:34:50.608Z,64.50
2019-03-12T07:35:54.462Z,64.50
2019-03-12T07:36:58.325Z,64.50
2019-03-12T07:38:02.055Z,64.60
2019-03-12T07:39:05.887Z,64.30
2019-03-12T07:40:09.501Z,64.40
2019-03-12T07:41:24.605Z,64.60
2019-03-12T07:42:19.438Z,64.60
2019-03-12T07:43:22.721Z,64.50
2019-03-12T07:44:25.804Z,65.30
2019-03-12T07:45:29.321Z,64.50
2019-03-12T07:46:32.479Z,64.30
2019-03-12T07:47:36.258Z,65.00
2019-03-12T07:48:41.050Z,65.00
2019-03-12T07:49:44.373Z,65.10
2019-03-12T07:50:48.131Z,64.70
2019-03-12T07:51:51.773Z,65.30
2019-03-12T07:52:55.320Z,65.30
2019-03-12T07:54:00.018Z,65.00
2019-03-12T07:55:03.448Z,65.60
2019-03-12T07:56:06.741Z,65.60
2019-03-12T07:57:10.131Z,65.60
2019-03-12T07:58:13.490Z,65.70
2019-03-12T07:59:16.569Z,65.90
2019-03-12T08:00:19.799Z,65.90
2019-03-12T08:01:25.035Z,66.60
2019-03-12T08:02:28.032Z,65.90
2019-03-12T08:03:32.712Z,65.70
2019-03-12T08:04:37.197Z,66.20
2019-03-12T08:05:40.588Z,65.70
2019-03-12T08:06:44.742Z,66.20
2019-03-12T08:07:48.321Z,65.90
2019-03-12T08:08:51.481Z,66.50
2019-03-12T08:09:54.867Z,66.60
2019-03-12T08:10:58.456Z,66.70
2019-03-12T08:12:01.919Z,66.30
2019-03-12T08:13:05.534Z,66.60
2019-03-12T08:14:09.944Z,66.60
2019-03-12T08:15:22.582Z,66.60
2019-03-12T08:16:18.484Z,66.30
2019-03-12T08:17:21.845Z,66.50
2019-03-12T08:18:26.156Z,66.80
2019-03-12T08:19:29.601Z,66.50
2019-03-12T08:20:33.317Z,66.80
2019-03-12T08:21:37.516Z,67.10
2019-03-12T08:22:41.038Z,66.80
2019-03-12T08:23:44.927Z,66.90
2019-03-12T08:24:48.748Z,67.10
2019-03-12T08:25:52.428Z,66.80
2019-03-12T08:26:55.809Z,67.20
2019-03-12T08:27:59.505Z,67.50
2019-03-12T08:29:03.098Z,67.50
2019-03-12T08:30:06.328Z,67.60
2019-03-12T08:31:10.071Z,67.20
2019-03-12T08:32:14.078Z,67.40
2019-03-12T08:33:18.311Z,67.30
2019-03-12T08:34:21.728Z,67.40
2019-03-12T08:35:25.938Z,67.60
2019-03-12T08:36:37.692Z,68.00
2019-03-12T08:37:53.977Z,67.40
2019-03-12T08:39:43.717Z,67.90
2019-03-12T08:40:22.078Z,67.30
2019-03-12T08:41:37.447Z,67.50
2019-03-12T08:42:55.025Z,67.60
2019-03-12T08:44:00.056Z,67.70
2019-03-12T08:45:11.254Z,67.50
2019-03-12T08:46:18.402Z,67.40
2019-03-12T08:47:21.473Z,67.50
2019-03-12T08:48:25.134Z,67.50
2019-03-12T08:49:28.705Z,67.60
2019-03-12T08:50:35.171Z,67.50
2019-03-12T08:51:41.761Z,67.30
2019-03-12T08:52:45.777Z,67.20
2019-03-12T08:53:50.112Z,67.20
2019-03-12T08:54:57.344Z,66.80
2019-03-12T08:56:00.585Z,67.40
2019-03-12T08:57:04.495Z,67.40
2019-03-12T08:58:08.141Z,67.30
2019-03-12T08:59:12.403Z,67.40
2019-03-12T09:00:16.435Z,67.30
2019-03-12T09:01:19.835Z,66.90
2019-03-12T09:02:24.417Z,67.50
2019-03-12T09:03:27.516Z,67.40
2019-03-12T09:04:31.099Z,67.60
2019-03-12T09:05:34.751Z,68.40
2019-03-12T09:06:38.394Z,67.40
2019-03-12T09:07:42.145Z,66.90
2019-03-12T09:08:45.168Z,67.10
2019-03-12T09:09:49.030Z,66.80
2019-03-12T09:10:52.136Z,67.40
2019-03-12T09:11:56.328Z,66.80
2019-03-12T09:12:59.435Z,67.40
2019-03-12T09:14:02.708Z,67.80
2019-03-12T09:15:06.329Z,67.70
2019-03-12T09:16:09.795Z,67.50
2019-03-12T09:17:13.325Z,67.90
2019-03-12T09:18:16.867Z,69.00
2019-03-12T09:19:19.952Z,67.20
2019-03-12T09:20:23.436Z,66.90
2019-03-12T09:21:26.841Z,67.50
2019-03-12T09:22:30.110Z,67.70
2019-03-12T09:23:35.052Z,67.30
2019-03-12T09:24:39.021Z,67.80
2019-03-12T09:25:43.132Z,67.90
2019-03-12T09:26:46.627Z,68.00
2019-03-12T09:27:50.827Z,68.00
2019-03-12T09:28:54.406Z,68.20
2019-03-12T09:30:01.142Z,68.20
2019-03-12T09:31:04.777Z,68.30
2019-03-12T09:32:09.336Z,68.10
2019-03-12T09:33:13.090Z,68.00
2019-03-12T09:34:17.097Z,68.20
2019-03-12T09:35:20.584Z,67.40
2019-03-12T09:36:23.871Z,67.80
2019-03-12T09:37:28.074Z,68.00
2019-03-12T09:38:34.120Z,67.90
2019-03-12T09:39:41.095Z,68.20
2019-03-12T09:40:44.784Z,67.80
2019-03-12T09:41:49.373Z,67.40
2019-03-12T09:42:52.591Z,66.60
2019-03-12T09:43:56.338Z,67.60
2019-03-12T09:45:00.381Z,68.70
2019-03-12T09:46:05.090Z,67.70
2019-03-12T09:47:08.476Z,67.80
2019-03-12T09:48:12.069Z,67.90
2019-03-12T09:49:17.585Z,68.20
2019-03-12T09:50:21.613Z,68.20
2019-03-12T09:51:28.070Z,68.50
2019-03-12T09:52:33.044Z,68.80
2019-03-12T09:53:35.993Z,68.50
2019-03-12T09:54:39.102Z,68.40
2019-03-12T09:55:42.098Z,68.60
2019-03-12T09:56:46.121Z,68.80
2019-03-12T09:57:50.074Z,68.60
2019-03-12T09:58:54.430Z,68.90
2019-03-12T09:59:58.352Z,68.80
2019-03-12T10:01:02.331Z,68.80
2019-03-12T10:02:05.412Z,68.80
2019-03-12T10:03:09.774Z,68.80
2019-03-12T10:04:12.921Z,68.90
2019-03-12T10:05:16.614Z,68.80
2019-03-12T10:06:20.704Z,69.00
2019-03-12T10:07:23.883Z,68.10
2019-03-12T10:08:27.664Z,68.70
2019-03-12T10:09:31.089Z,68.40
2019-03-12T10:10:34.767Z,68.30
2019-03-12T10:11:38.660Z,67.40
2019-03-12T10:12:45.234Z,66.80
2019-03-12T10:13:48.332Z,67.40
2019-03-12T10:14:51.482Z,68.10
2019-03-12T10:15:55.033Z,67.20
2019-03-12T10:16:58.168Z,68.40
2019-03-12T10:18:02.656Z,67.40
2019-03-12T10:19:06.079Z,67.70
2019-03-12T10:20:09.251Z,67.50
2019-03-12T10:21:12.416Z,67.60
2019-03-12T10:22:17.735Z,67.90
2019-03-12T10:23:21.037Z,68.60
2019-03-12T10:24:24.527Z,68.60
2019-03-12T10:25:27.951Z,67.90
2019-03-12T10:26:31.995Z,68.00
2019-03-12T10:27:35.088Z,68.60
2019-03-12T10:28:38.677Z,67.90
2019-03-12T10:29:42.065Z,69.10
2019-03-12T10:30:46.577Z,68.40
2019-03-12T10:31:50.314Z,68.50
2019-03-12T10:32:53.534Z,68.00
2019-03-12T10:33:57.170Z,68.50
2019-03-12T10:35:00.640Z,71.60
2019-03-12T10:36:03.753Z,68.80
2019-03-12T10:37:11.983Z,71.20
2019-03-12T10:38:12.708Z,73.00
2019-03-12T10:39:16.025Z,68.80
2019-03-12T10:40:19.625Z,67.30
2019-03-12T10:41:23.376Z,67.30
2019-03-12T10:42:27.168Z,66.60
2019-03-12T10:43:30.704Z,66.40
2019-03-12T10:44:36.141Z,67.30
2019-03-12T10:45:40.406Z,67.00
2019-03-12T10:46:44.038Z,66.70
2019-03-12T10:47:47.613Z,67.00
2019-03-12T10:48:50.817Z,67.10
2019-03-12T10:49:55.422Z,67.10
2019-03-12T10:50:59.678Z,67.30
2019-03-12T10:52:03.314Z,67.20
2019-03-12T10:53:07.117Z,67.40
2019-03-12T10:54:10.615Z,67.20
2019-03-12T10:55:14.262Z,67.60
2019-03-12T10:56:18.058Z,67.30
2019-03-12T10:57:21.988Z,67.70
2019-03-12T10:58:26.610Z,67.90
2019-03-12T10:59:32.330Z,67.50
2019-03-12T11:00:35.533Z,68.30
2019-03-12T11:01:39.155Z,68.20
2019-03-12T11:02:42.417Z,68.40
2019-03-12T11:03:45.487Z,68.80
2019-03-12T11:04:48.678Z,69.20
2019-03-12T11:05:51.707Z,69.50
2019-03-12T11:06:55.451Z,69.70
2019-03-12T11:07:58.866Z,68.60
2019-03-12T11:09:03.098Z,69.30
2019-03-12T11:10:10.519Z,69.40
2019-03-12T11:11:14.064Z,69.60
2019-03-12T11:12:17.133Z,70.00
2019-03-12T11:13:25.862Z,69.00
2019-03-12T11:14:34.321Z,68.00
2019-03-12T11:15:37.754Z,64.10
2019-03-12T11:16:42.815Z,61.70
2019-03-12T11:17:49.807Z,62.10
2019-03-12T11:18:52.064Z,63.80
2019-03-12T11:19:58.086Z,65.00
2019-03-12T11:21:01.349Z,64.20
2019-03-12T11:22:09.136Z,64.70
2019-03-12T11:23:12.667Z,62.90
2019-03-12T11:24:16.568Z,62.20
2019-03-12T11:25:27.211Z,63.20
2019-03-12T11:26:25.800Z,65.20
2019-03-12T11:27:29.436Z,63.60
2019-03-12T11:28:33.496Z,65.30
2019-03-12T11:29:37.079Z,65.50
2019-03-12T11:30:40.662Z,71.90
2019-03-12T11:31:44.469Z,71.40
2019-03-12T11:32:47.857Z,70.30
2019-03-12T11:33:51.761Z,70.10
2019-03-12T11:34:54.735Z,69.30
2019-03-12T11:35:58.478Z,70.70
2019-03-12T11:37:01.637Z,67.40
2019-03-12T11:38:05.811Z,69.90
2019-03-12T11:39:08.787Z,67.70
2019-03-12T11:40:12.914Z,68.00
2019-03-12T11:41:17.079Z,69.10
2019-03-12T11:42:20.572Z,70.20
2019-03-12T11:43:24.087Z,70.20
2019-03-12T11:44:27.359Z,70.60
2019-03-12T11:45:36.865Z,69.40
2019-03-12T11:46:43.030Z,68.10
2019-03-12T11:47:42.244Z,68.10
2019-03-12T11:48:46.109Z,68.50
2019-03-12T11:49:49.745Z,69.40
2019-03-12T11:50:53.532Z,70.00
2019-03-12T11:51:57.322Z,70.40
2019-03-12T11:53:01.141Z,70.40
2019-03-12T11:54:04.835Z,70.00
2019-03-12T11:55:12.121Z,70.30
2019-03-12T11:56:15.837Z,71.10
2019-03-12T11:57:19.468Z,70.20
2019-03-12T11:58:22.790Z,70.60
2019-03-12T11:59:26.453Z,70.50
2019-03-12T12:00:30.708Z,69.60
2019-03-12T12:01:34.138Z,70.00
2019-03-12T12:02:38.475Z,70.00
2019-03-12T12:03:42.042Z,70.00
2019-03-12T12:04:45.419Z,69.60
2019-03-12T12:05:48.631Z,69.90
2019-03-12T12:06:52.097Z,70.50
2019-03-12T12:07:58.374Z,70.70
2019-03-12T12:09:03.905Z,70.80
2019-03-12T12:10:09.023Z,71.10
2019-03-12T12:11:13.435Z,71.10
2019-03-12T12:12:17.433Z,71.50
2019-03-12T12:13:21.735Z,71.90
2019-03-12T12:14:25.131Z,71.20
2019-03-12T12:15:29.265Z,71.30
2019-03-12T12:16:34.576Z,71.60
2019-03-12T12:17:38.046Z,72.00
2019-03-12T12:18:42.047Z,70.80
2019-03-12T12:19:45.842Z,71.30
2019-03-12T12:20:49.338Z,71.20
2019-03-12T12:21:53.140Z,71.00
2019-03-12T12:22:58.112Z,71.10
2019-03-12T12:24:01.539Z,70.50
2019-03-12T12:25:06.156Z,70.40
2019-03-12T12:26:10.160Z,70.30
2019-03-12T12:27:13.899Z,70.60
2019-03-12T12:28:17.138Z,70.30
2019-03-12T12:29:20.723Z,70.20
2019-03-12T12:30:24.113Z,70.80
2019-03-12T12:31:27.414Z,71.30
2019-03-12T12:32:30.890Z,70.70
2019-03-12T12:33:35.322Z,71.00
2019-03-12T12:34:42.018Z,71.10
2019-03-12T12:35:45.435Z,71.90
2019-03-12T12:36:48.737Z,71.40
2019-03-12T12:37:52.665Z,71.40
2019-03-12T12:38:56.501Z,72.10
2019-03-12T12:40:03.569Z,71.50
2019-03-12T12:41:07.324Z,71.10
2019-03-12T12:42:10.791Z,71.50
2019-03-12T12:43:14.218Z,70.30
2019-03-12T12:44:17.783Z,70.70
2019-03-12T12:45:22.332Z,70.20
2019-03-12T12:46:26.323Z,70.30
2019-03-12T12:47:32.135Z,70.70
2019-03-12T12:48:35.329Z,70.60
2019-03-12T12:49:38.792Z,71.00
2019-03-12T12:50:42.991Z,70.90
2019-03-12T12:51:47.100Z,71.10
2019-03-12T12:52:50.859Z,71.20
2019-03-12T12:53:54.318Z,71.80
2019-03-12T12:54:58.127Z,71.50
2019-03-12T12:56:01.687Z,71.50
2019-03-12T12:57:05.061Z,71.30
2019-03-12T12:58:08.433Z,71.80
2019-03-12T12:59:12.677Z,71.80
2019-03-12T13:00:16.655Z,70.90
2019-03-12T13:01:20.460Z,71.00
2019-03-12T13:02:24.040Z,71.70
2019-03-12T13:03:27.588Z,71.30
2019-03-12T13:04:31.119Z,72.20
2019-03-12T13:05:34.402Z,71.80
2019-03-12T13:06:37.796Z,71.40
2019-03-12T13:07:41.675Z,71.60
2019-03-12T13:08:45.075Z,71.30
2019-03-12T13:09:49.079Z,72.20
2019-03-12T13:10:52.654Z,71.60
2019-03-12T13:11:56.242Z,71.80
2019-03-12T13:12:59.642Z,71.50
2019-03-12T13:14:03.134Z,71.00
2019-03-12T13:15:06.620Z,70.80
2019-03-12T13:16:10.008Z,71.30
2019-03-12T13:17:14.005Z,71.00
2019-03-12T13:18:17.592Z,70.40
2019-03-12T13:19:22.335Z,71.60
2019-03-12T13:20:26.381Z,71.20
2019-03-12T13:21:29.506Z,71.00
2019-03-12T13:22:32.790Z,71.30
2019-03-12T13:23:36.364Z,72.10
2019-03-12T13:24:39.761Z,71.10
2019-03-12T13:25:43.460Z,71.60
2019-03-12T13:26:47.049Z,72.90
2019-03-12T13:27:51.366Z,71.90
2019-03-12T13:28:56.006Z,72.20
2019-03-12T13:29:59.601Z,74.10
2019-03-12T13:31:02.544Z,72.50
2019-03-12T13:32:13.346Z,71.30
2019-03-12T13:33:10.420Z,72.20
2019-03-12T13:34:13.408Z,72.40
2019-03-12T13:35:16.495Z,71.90
2019-03-12T13:36:20.321Z,72.00
2019-03-12T13:37:23.393Z,72.60
2019-03-12T13:38:27.368Z,72.30
2019-03-12T13:39:31.640Z,72.80
2019-03-12T13:40:35.022Z,71.60
2019-03-12T13:41:53.039Z,71.50
2019-03-12T13:42:56.690Z,71.90
2019-03-12T13:44:00.615Z,71.40
2019-03-12T13:45:05.379Z,71.90
2019-03-12T13:46:09.357Z,71.20
2019-03-12T14:05:10.583Z,71.80
2019-03-12T14:06:14.287Z,72.50
2019-03-12T14:07:17.331Z,72.20
2019-03-12T14:08:21.046Z,71.20
2019-03-12T14:09:26.029Z,71.20
2019-03-12T14:10:29.742Z,70.90
2019-03-12T14:11:33.149Z,69.90
2019-03-12T14:12:36.426Z,70.00
2019-03-12T14:13:39.510Z,70.40
2019-03-12T14:14:43.987Z,70.00
2019-03-12T14:15:47.354Z,70.10
2019-03-12T14:16:52.442Z,70.10
2019-03-12T14:17:55.826Z,69.90
2019-03-12T14:19:00.438Z,70.10
2019-03-12T14:20:04.328Z,70.40
2019-03-12T14:21:08.809Z,70.60
2019-03-12T14:24:22.077Z,69.10
2019-03-12T14:25:26.314Z,70.20
2019-03-12T14:26:29.480Z,70.20
2019-03-12T14:27:32.854Z,69.60
2019-03-12T14:28:36.136Z,69.70
2019-03-12T14:29:40.432Z,69.20
2019-03-12T14:30:46.301Z,70.00
2019-03-12T14:31:49.076Z,70.10
2019-03-12T14:32:55.395Z,70.10
2019-03-12T14:33:58.523Z,69.90
2019-03-12T14:35:02.331Z,69.80
2019-03-12T14:36:06.323Z,69.60
2019-03-12T14:37:09.888Z,69.90
2019-03-12T14:38:13.726Z,70.10
2019-03-12T14:39:16.718Z,69.80
2019-03-12T14:40:20.452Z,69.30
2019-03-12T14:41:24.650Z,71.10
2019-03-12T14:42:27.741Z,70.40
2019-03-12T14:43:31.127Z,69.90
2019-03-12T14:44:34.727Z,70.20
2019-03-12T14:45:37.799Z,69.40
2019-03-12T14:46:41.581Z,70.00
2019-03-12T14:47:44.878Z,69.80
2019-03-12T14:49:52.781Z,70.30
2019-03-12T14:50:57.499Z,70.30
2019-03-12T14:52:01.387Z,70.00
2019-03-12T14:53:20.824Z,69.50
2019-03-12T14:54:12.878Z,70.00
2019-03-12T14:55:17.071Z,70.10
2019-03-12T14:56:20.471Z,70.00
2019-03-12T14:57:26.280Z,70.20
2019-03-12T14:58:31.137Z,70.20
2019-03-12T14:59:34.933Z,70.70
2019-03-12T15:00:39.548Z,70.40
2019-03-12T15:01:54.715Z,70.20
2019-03-12T15:02:54.404Z,70.30
2019-03-12T15:03:58.107Z,70.30
2019-03-12T15:05:02.114Z,70.30
2019-03-12T15:06:05.595Z,70.40
2019-03-12T15:07:13.685Z,70.20
2019-03-12T15:08:17.492Z,70.40
2019-03-12T15:09:20.800Z,70.30
2019-03-12T15:10:24.478Z,70.60
2019-03-12T15:11:27.751Z,70.40
2019-03-12T15:12:31.051Z,70.50
2019-03-12T15:13:34.233Z,70.50
2019-03-12T15:14:37.120Z,70.10
2019-03-12T15:15:40.480Z,70.20
2019-03-12T15:16:47.155Z,70.30
2019-03-12T15:17:50.635Z,70.50
2019-03-12T15:18:53.808Z,71.10
2019-03-12T15:19:57.502Z,70.60
2019-03-12T15:21:00.496Z,69.70
2019-03-12T15:22:03.777Z,70.60
2019-03-12T15:23:07.188Z,70.40
2019-03-12T15:24:10.435Z,70.50
2019-03-12T15:25:15.457Z,70.60
2019-03-12T15:26:19.460Z,70.30
2019-03-12T15:27:23.460Z,70.30
2019-03-12T15:28:27.573Z,70.60
2019-03-12T15:29:31.468Z,70.50
2019-03-12T15:30:34.746Z,71.20
2019-03-12T15:31:47.727Z,71.30
2019-03-12T15:32:52.318Z,70.80
2019-03-12T15:33:55.472Z,70.60
2019-03-12T15:35:02.144Z,70.60
2019-03-12T15:36:06.326Z,70.10
2019-03-12T15:37:09.550Z,71.20
2019-03-12T15:38:13.159Z,70.30
2019-03-12T15:39:16.499Z,70.60
2019-03-12T15:40:19.872Z,71.20
2019-03-12T15:41:23.566Z,71.00
2019-03-12T15:42:27.987Z,70.50
2019-03-12T15:43:32.328Z,71.00
2019-03-12T15:44:35.773Z,70.70
2019-03-12T15:45:39.056Z,71.80
2019-03-12T15:46:42.750Z,70.90
2019-03-12T15:47:46.137Z,70.80
2019-03-12T15:48:50.329Z,71.10
2019-03-12T15:49:54.446Z,70.90
2019-03-12T15:50:57.835Z,71.00
2019-03-12T15:52:01.539Z,70.60
2019-03-12T15:53:05.444Z,70.20
2019-03-12T15:54:08.816Z,70.90
2019-03-12T15:55:12.531Z,71.10
2019-03-12T15:56:16.108Z,70.10
2019-03-12T15:57:19.518Z,70.40
2019-03-12T15:58:23.321Z,71.30
2019-03-12T15:59:26.795Z,71.90
2019-03-12T16:00:30.451Z,71.10
2019-03-12T16:01:33.332Z,71.20
2019-03-12T16:02:36.321Z,70.90
2019-03-12T16:03:41.860Z,71.00
2019-03-12T16:04:44.912Z,71.10
2019-03-12T16:05:48.421Z,70.80
2019-03-12T16:07:00.753Z,70.60
2019-03-12T16:07:57.049Z,71.10
2019-03-12T16:09:01.718Z,71.00
2019-03-12T16:10:07.322Z,70.90
2019-03-12T16:11:10.594Z,70.70
2019-03-12T16:12:14.445Z,71.00
2019-03-12T16:13:17.449Z,71.30
2019-03-12T16:14:21.044Z,71.20
2019-03-12T16:15:24.761Z,70.80
2019-03-12T16:16:28.642Z,70.90
2019-03-12T16:17:32.127Z,70.90
2019-03-12T16:18:35.889Z,71.20
2019-03-12T16:19:40.322Z,71.20
2019-03-12T16:20:44.130Z,71.00
2019-03-12T16:21:48.736Z,71.30
2019-03-12T16:22:52.639Z,71.00
2019-03-12T16:23:56.355Z,71.20
2019-03-12T16:25:00.475Z,70.70
2019-03-12T16:26:05.318Z,71.10
2019-03-12T16:27:09.451Z,71.50
2019-03-12T16:28:13.006Z,71.60
2019-03-12T16:29:16.097Z,71.60
2019-03-12T16:30:19.408Z,71.00
2019-03-12T16:31:23.640Z,72.40
2019-03-12T16:32:26.809Z,71.40
2019-03-12T16:33:31.113Z,71.40
2019-03-12T16:34:39.026Z,70.90
2019-03-12T16:35:41.463Z,71.30
2019-03-12T16:36:46.473Z,71.00
2019-03-12T16:37:52.330Z,71.30
2019-03-12T16:38:56.078Z,71.40
2019-03-12T16:40:00.059Z,71.20
2019-03-12T16:41:04.090Z,71.20
2019-03-12T16:42:07.823Z,71.60
2019-03-12T16:43:11.907Z,71.50
2019-03-12T16:44:15.325Z,70.90
2019-03-12T16:45:18.821Z,70.60
2019-03-12T16:46:22.096Z,71.40
2019-03-12T16:47:25.751Z,71.30
2019-03-12T16:48:29.122Z,71.30
2019-03-12T16:49:33.796Z,70.70
2019-03-12T16:50:37.695Z,71.40
2019-03-12T16:51:41.077Z,71.30
2019-03-12T16:52:44.780Z,71.50
2019-03-12T16:53:48.659Z,71.40
2019-03-12T16:54:52.162Z,71.20
2019-03-12T16:55:55.431Z,71.60
2019-03-12T16:56:58.423Z,71.40
2019-03-12T16:58:03.001Z,71.30
2019-03-12T16:59:08.506Z,71.30
2019-03-12T17:00:12.151Z,71.00
2019-03-12T17:01:15.755Z,71.70
2019-03-12T17:02:19.148Z,71.50
2019-03-12T17:03:22.478Z,71.50
2019-03-12T17:04:25.420Z,71.30
2019-03-12T17:06:50.086Z,71.50
2019-03-12T17:09:08.671Z,71.70
2019-03-12T17:10:13.373Z,71.80
2019-03-12T17:11:16.448Z,71.70
2019-03-12T17:12:19.729Z,71.50
2019-03-12T17:13:23.015Z,71.50
2019-03-12T17:14:38.311Z,71.60
2019-03-12T17:15:31.434Z,71.50
2019-03-12T17:16:34.813Z,71.70
2019-03-12T17:17:38.706Z,71.50
2019-03-12T17:18:41.787Z,71.70
2019-03-12T17:19:45.580Z,72.30
2019-03-12T17:20:48.769Z,71.60
2019-03-12T17:21:52.051Z,71.80
2019-03-12T17:22:55.391Z,71.20
2019-03-12T17:23:58.622Z,71.50
2019-03-12T17:25:02.145Z,71.60
2019-03-12T17:26:05.606Z,71.30
2019-03-12T17:27:08.803Z,72.70
2019-03-12T17:28:12.464Z,71.90
2019-03-12T17:29:15.861Z,72.10
2019-03-12T17:30:19.048Z,72.10
2019-03-12T17:31:22.417Z,71.20
2019-03-12T17:32:25.508Z,71.70
2019-03-12T17:33:28.795Z,71.80
2019-03-12T17:34:36.053Z,71.80
2019-03-12T17:37:11.324Z,71.70
2019-03-12T17:38:14.336Z,71.80
2019-03-12T17:39:17.592Z,71.80
2019-03-12T17:40:20.567Z,71.70
2019-03-12T17:41:23.933Z,71.70
2019-03-12T17:42:27.326Z,71.60
2019-03-12T17:43:30.498Z,71.70
2019-03-12T17:44:33.560Z,72.00
2019-03-12T17:45:37.007Z,72.00
2019-03-12T17:46:39.943Z,72.10
2019-03-12T17:47:43.065Z,71.60
2019-03-12T17:48:47.006Z,71.70
2019-03-12T17:49:50.325Z,71.90
2019-03-12T17:50:53.116Z,71.70
2019-03-12T17:51:57.277Z,72.00
2019-03-12T17:53:00.335Z,72.00
2019-03-12T17:54:03.331Z,72.20
2019-03-12T17:55:06.348Z,72.00
2019-03-12T17:56:09.321Z,71.90
2019-03-12T17:57:12.347Z,72.00
2019-03-12T17:58:15.327Z,71.90
2019-03-12T17:59:18.585Z,72.00
2019-03-12T18:00:21.903Z,72.10
2019-03-12T18:01:29.573Z,72.00
2019-03-12T18:02:41.923Z,71.40
2019-03-12T18:03:35.377Z,72.00
2019-03-12T18:04:38.525Z,72.00
2019-03-12T18:05:42.480Z,72.00
2019-03-12T18:06:45.691Z,72.00
2019-03-12T18:07:48.729Z,72.10
2019-03-12T18:08:51.614Z,72.00
2019-03-12T18:09:54.671Z,72.30
2019-03-12T18:10:57.569Z,72.00
2019-03-12T18:12:00.411Z,72.20
2019-03-12T18:13:04.605Z,72.00
2019-03-12T18:14:08.362Z,72.00
2019-03-12T18:15:11.327Z,72.20
2019-03-12T18:16:14.547Z,72.10
2019-03-12T18:17:17.469Z,72.20
2019-03-12T18:18:21.298Z,72.10
2019-03-12T18:19:24.474Z,72.90
2019-03-12T18:20:27.325Z,72.10
2019-03-12T18:21:30.957Z,72.30
2019-03-12T18:22:38.636Z,72.50
2019-03-12T18:23:43.992Z,71.80
2019-03-12T18:24:46.888Z,71.90
2019-03-12T18:25:50.330Z,72.10
2019-03-12T18:26:53.682Z,72.50
2019-03-12T18:27:56.586Z,72.40
2019-03-12T18:29:00.908Z,72.30
2019-03-12T18:30:04.008Z,72.30
2019-03-12T18:31:07.460Z,71.90
2019-03-12T18:32:10.967Z,72.20
2019-03-12T18:33:13.949Z,72.60
2019-03-12T18:34:16.975Z,72.20
2019-03-12T18:35:20.648Z,72.00
2019-03-12T18:36:23.602Z,72.10
2019-03-12T18:37:26.588Z,72.60
2019-03-12T18:38:29.544Z,72.40
2019-03-12T18:39:32.416Z,72.40
2019-03-12T18:40:35.497Z,72.40
2019-03-12T18:41:38.562Z,72.40
2019-03-12T18:42:41.490Z,72.60
2019-03-12T18:43:45.024Z,72.40
2019-03-12T18:44:47.947Z,72.50
2019-03-12T18:45:50.993Z,72.60
2019-03-12T18:46:54.032Z,72.00
2019-03-12T18:47:57.002Z,72.10
2019-03-12T18:48:59.962Z,72.60
2019-03-12T18:50:03.005Z,72.20
2019-03-12T18:51:06.588Z,72.00
2019-03-12T18:52:09.575Z,72.60
2019-03-12T18:53:14.968Z,72.60
2019-03-12T18:54:18.391Z,72.40
2019-03-12T18:55:21.474Z,72.00
2019-03-12T18:56:24.986Z,73.40
2019-03-12T18:57:28.579Z,72.90
2019-03-12T18:58:31.332Z,72.80
2019-03-12T18:59:35.669Z,73.40
2019-03-12T19:00:38.995Z,72.70
2019-03-12T19:01:42.587Z,72.70
2019-03-12T19:02:45.588Z,72.70
2019-03-12T19:03:48.359Z,72.80
2019-03-12T19:04:51.501Z,72.70
2019-03-12T19:05:57.550Z,72.80
2019-03-12T19:07:04.961Z,72.80
2019-03-12T19:08:08.007Z,72.80
2019-03-12T19:09:10.994Z,72.50
2019-03-12T19:10:17.026Z,72.50
2019-03-12T19:11:20.034Z,72.60
2019-03-12T19:12:23.329Z,72.60
2019-03-12T19:13:26.344Z,73.00
2019-03-12T19:14:29.418Z,73.00
2019-03-12T19:15:32.327Z,73.10
2019-03-12T19:16:35.420Z,73.10
2019-03-12T19:17:38.908Z,73.20
2019-03-12T19:18:42.054Z,73.20
2019-03-12T19:19:46.670Z,72.90
2019-03-12T19:20:52.301Z,73.20
2019-03-12T19:21:55.038Z,73.20
2019-03-12T19:22:58.582Z,73.30
2019-03-12T19:24:01.426Z,73.30
2019-03-12T19:25:04.389Z,73.20
2019-03-12T19:26:07.317Z,73.30
2019-03-12T19:27:10.408Z,73.30
2019-03-12T19:28:13.343Z,73.30
2019-03-12T19:29:16.078Z,73.40
2019-03-12T19:30:19.026Z,73.40
2019-03-12T19:31:39.930Z,73.40
2019-03-12T19:32:43.369Z,73.40
2019-03-12T19:33:46.328Z,73.40
2019-03-12T19:34:50.330Z,73.50
2019-03-12T19:35:53.135Z,73.50
2019-03-12T19:36:56.000Z,73.50
2019-03-12T19:37:59.056Z,73.60
2019-03-12T19:39:02.061Z,73.20
2019-03-12T19:40:06.519Z,73.60
2019-03-12T19:41:09.483Z,73.60
2019-03-12T19:42:12.376Z,73.60
2019-03-12T19:43:18.125Z,73.70
2019-03-12T19:44:20.622Z,73.60
2019-03-12T19:45:23.486Z,73.60
2019-03-12T19:46:26.578Z,73.60
2019-03-12T19:47:29.583Z,73.70
2019-03-12T19:48:33.331Z,73.80
2019-03-12T19:49:36.335Z,74.50
2019-03-12T19:50:39.582Z,73.70
2019-03-12T19:51:43.042Z,73.70
2019-03-12T19:52:47.659Z,73.70
2019-03-12T19:53:50.956Z,73.70
2019-03-12T19:54:54.201Z,73.70
2019-03-12T19:55:57.260Z,73.70
2019-03-12T19:57:00.324Z,73.70
2019-03-12T19:58:03.323Z,73.80
2019-03-12T19:59:06.322Z,73.80
2019-03-12T20:00:09.411Z,73.90
2019-03-12T20:01:12.341Z,73.80
2019-03-12T20:02:16.577Z,73.80
2019-03-12T20:03:20.337Z,73.80
2019-03-12T20:04:23.315Z,73.80
2019-03-12T20:05:26.328Z,74.50
2019-03-12T20:06:29.158Z,74.00
2019-03-12T20:07:35.315Z,73.90
2019-03-12T20:08:38.314Z,73.90
2019-03-12T20:09:41.417Z,74.00
2019-03-12T20:10:44.550Z,73.90
2019-03-12T20:11:47.539Z,74.00
2019-03-12T20:12:50.524Z,74.00
2019-03-12T20:13:53.383Z,73.90
2019-03-12T20:14:56.518Z,73.90
2019-03-12T20:15:59.603Z,74.00
2019-03-12T20:17:09.227Z,74.00
2019-03-12T20:18:07.563Z,74.00
2019-03-12T20:19:10.573Z,74.00
2019-03-12T20:20:13.660Z,74.00
2019-03-12T20:21:16.588Z,74.00
2019-03-12T20:22:19.611Z,74.00
2019-03-12T20:23:22.523Z,74.00
2019-03-12T20:24:25.319Z,74.00